Johnstown, Nebraska
Current Conditions -  °F | °C
As of 12:15 AM on Monday 22 Dec 2014 (Local Time) from KANW Reporting Station
Overcast Overcast  
Wind Chill: 29°   Ceiling: 7000
Heat Index: 34°   Visibility: 10mi
Dew Point: 32°   Wind: 6mph
Humidity: 90%   Direction: 260°W
Pressure: 29.47"   Gusts: NA
Location:  42.57°N, 100.06°W
Report Text: KANW 220615Z AUTO 26005KT 10SM SCT038 BKN070 OVC080 01/00 A2947 RMK AO2 T00121002
Loading
Personal Weather Stations






























Interactive Weather Map New forecast layout! Learn more

10-Day Weather Forecast

Advertisements
Track Severe Weather on mobile